createdAt,value
2019-04-03T00:01:30.734Z,34.99
2019-04-03T00:04:04.945Z,35.01
2019-04-03T00:06:38.470Z,34.94
2019-04-03T00:09:12.085Z,34.95
2019-04-03T00:11:45.788Z,34.99
2019-04-03T00:14:18.991Z,35.03
2019-04-03T00:16:52.370Z,34.99
2019-04-03T00:19:25.691Z,34.91
2019-04-03T00:21:59.063Z,35.02
2019-04-03T00:24:32.319Z,34.91
2019-04-03T00:27:05.817Z,35.02
2019-04-03T00:29:39.255Z,34.95
2019-04-03T00:32:12.671Z,34.95
2019-04-03T00:34:45.995Z,34.95
2019-04-03T00:37:19.369Z,34.92
2019-04-03T00:39:54.450Z,35.01
2019-04-03T00:42:27.760Z,35.01
2019-04-03T00:45:01.265Z,35.04
2019-04-03T00:47:34.673Z,34.97
2019-04-03T00:50:08.070Z,35.00
2019-04-03T00:52:41.244Z,34.99
2019-04-03T00:55:14.569Z,35.04
2019-04-03T00:57:48.147Z,35.10
2019-04-03T01:00:21.456Z,35.15
2019-04-03T01:02:55.037Z,35.08
2019-04-03T01:05:29.063Z,35.12
2019-04-03T01:08:02.713Z,35.10
2019-04-03T01:10:36.320Z,35.04
2019-04-03T01:13:09.860Z,34.98
2019-04-03T01:15:43.437Z,35.02
2019-04-03T01:18:17.032Z,35.02
2019-04-03T01:20:50.640Z,35.02
2019-04-03T01:23:23.970Z,35.06
2019-04-03T01:25:57.439Z,35.07
2019-04-03T01:28:30.841Z,35.03
2019-04-03T01:31:04.031Z,35.02
2019-04-03T01:33:37.441Z,34.91
2019-04-03T01:36:10.947Z,34.98
2019-04-03T01:38:44.138Z,34.96
2019-04-03T01:41:21.230Z,34.99
2019-04-03T01:43:54.395Z,34.95
2019-04-03T01:46:28.167Z,34.98
2019-04-03T01:49:01.916Z,34.94
2019-04-03T01:51:35.225Z,34.88
2019-04-03T01:54:08.655Z,34.98
2019-04-03T01:56:42.429Z,34.94
2019-04-03T01:59:16.990Z,34.91
2019-04-03T02:01:50.325Z,34.88
2019-04-03T02:04:23.940Z,34.85
2019-04-03T02:06:57.333Z,34.86
2019-04-03T02:09:31.132Z,34.94
2019-04-03T02:12:04.489Z,34.93
2019-04-03T02:14:38.019Z,34.97
2019-04-03T02:17:11.358Z,35.01
2019-04-03T02:19:44.993Z,34.94
2019-04-03T02:22:18.336Z,34.95
2019-04-03T02:24:52.059Z,34.88
2019-04-03T02:27:26.038Z,34.95
2019-04-03T02:29:59.350Z,34.95
2019-04-03T02:32:32.899Z,35.08
2019-04-03T02:35:08.235Z,35.03
2019-04-03T02:37:41.864Z,35.09
2019-04-03T02:40:15.055Z,35.03
2019-04-03T02:42:48.648Z,35.06
2019-04-03T02:45:24.183Z,34.96
2019-04-03T02:47:57.147Z,35.10
2019-04-03T02:50:30.717Z,35.03
2019-04-03T02:53:04.062Z,35.09
2019-04-03T02:55:39.750Z,35.12
2019-04-03T02:58:12.699Z,35.14
2019-04-03T03:00:46.207Z,35.18
2019-04-03T03:03:19.748Z,35.14
2019-04-03T03:05:54.738Z,35.19
2019-04-03T03:08:28.263Z,35.22
2019-04-03T03:11:02.040Z,35.18
2019-04-03T03:13:35.877Z,35.22
2019-04-03T03:16:09.322Z,35.21
2019-04-03T03:18:42.771Z,35.28
2019-04-03T03:21:16.189Z,35.26
2019-04-03T03:23:49.683Z,35.29
2019-04-03T03:26:23.110Z,35.30
2019-04-03T03:28:56.864Z,35.34
2019-04-03T03:31:59.173Z,35.30
2019-04-03T03:34:06.458Z,35.26
2019-04-03T03:36:40.601Z,35.30
2019-04-03T03:39:14.202Z,35.16
2019-04-03T03:41:47.658Z,35.22
2019-04-03T03:44:21.103Z,35.20
2019-04-03T03:46:55.104Z,35.18
2019-04-03T03:49:28.650Z,34.98
2019-04-03T03:52:04.471Z,34.81
2019-04-03T03:54:37.400Z,34.65
2019-04-03T03:57:11.107Z,34.39
2019-04-03T03:59:44.928Z,34.30
2019-04-03T04:02:18.618Z,34.14
2019-04-03T04:04:52.043Z,33.91
2019-04-03T04:07:25.966Z,33.66
2019-04-03T04:09:59.600Z,33.32
2019-04-03T04:12:33.350Z,33.16
2019-04-03T04:15:06.789Z,32.46
2019-04-03T04:17:40.443Z,32.42
2019-04-03T04:20:13.890Z,31.96
2019-04-03T04:22:50.431Z,32.00
2019-04-03T04:25:23.630Z,31.21
2019-04-03T04:27:57.090Z,31.20
2019-04-03T04:30:30.762Z,31.29
2019-04-03T04:33:04.319Z,31.11
2019-04-03T04:35:38.095Z,30.98
2019-04-03T04:38:11.549Z,30.65
2019-04-03T04:40:45.057Z,30.68
2019-04-03T04:43:19.440Z,30.67
2019-04-03T04:45:52.994Z,30.61
2019-04-03T04:48:26.663Z,30.55
2019-04-03T04:51:00.086Z,30.25
2019-04-03T04:53:33.418Z,30.46
2019-04-03T04:56:07.417Z,30.30
2019-04-03T04:58:43.046Z,30.22
2019-04-03T05:01:17.855Z,30.32
2019-04-03T05:03:51.958Z,30.20
2019-04-03T05:06:28.646Z,30.34
2019-04-03T05:09:03.237Z,30.17
2019-04-03T05:11:39.094Z,30.22
2019-04-03T05:14:12.159Z,30.14
2019-04-03T05:16:45.633Z,30.20
2019-04-03T05:19:19.625Z,30.13
2019-04-03T05:21:53.522Z,30.33
2019-04-03T05:24:28.904Z,30.35
2019-04-03T05:27:03.425Z,30.36
2019-04-03T05:29:37.220Z,30.48
2019-04-03T05:32:10.888Z,30.29
2019-04-03T05:34:44.744Z,30.47
2019-04-03T05:37:20.239Z,30.48
2019-04-03T05:39:55.671Z,30.56
2019-04-03T05:42:29.248Z,30.77
2019-04-03T05:45:04.936Z,30.62
2019-04-03T05:47:39.283Z,30.52
2019-04-03T05:50:14.138Z,30.56
2019-04-03T05:52:47.622Z,30.96
2019-04-03T05:55:21.052Z,30.71
2019-04-03T05:57:54.396Z,30.85
2019-04-03T06:00:27.871Z,31.46
2019-04-03T06:03:01.361Z,31.21
2019-04-03T06:05:34.918Z,31.57
2019-04-03T06:08:10.208Z,31.65
2019-04-03T06:10:44.011Z,31.60
2019-04-03T06:13:17.636Z,31.48
2019-04-03T06:15:53.212Z,31.55
2019-04-03T06:18:27.018Z,31.54
2019-04-03T06:21:01.631Z,31.62
2019-04-03T06:23:35.200Z,31.81
2019-04-03T06:26:08.582Z,31.85
2019-04-03T06:28:43.042Z,31.62
2019-04-03T06:31:18.985Z,31.47
2019-04-03T06:33:52.437Z,31.37
2019-04-03T06:36:26.021Z,31.33
2019-04-03T06:38:59.773Z,31.30
2019-04-03T06:41:33.245Z,31.12
2019-04-03T06:44:06.644Z,31.02
2019-04-03T06:46:40.764Z,30.58
2019-04-03T06:49:14.407Z,30.56
2019-04-03T06:51:49.423Z,30.26
2019-04-03T06:54:23.283Z,30.12
2019-04-03T06:56:56.956Z,29.96
2019-04-03T06:59:30.545Z,29.57
2019-04-03T07:02:04.322Z,29.61
2019-04-03T07:04:38.814Z,29.57
2019-04-03T07:07:12.768Z,29.46
2019-04-03T07:09:46.634Z,29.16
2019-04-03T07:12:20.223Z,29.28
2019-04-03T07:14:55.456Z,29.00
2019-04-03T07:17:31.407Z,29.16
2019-04-03T07:20:13.459Z,29.07
2019-04-03T07:22:40.981Z,28.91
2019-04-03T07:25:14.869Z,29.01
2019-04-03T07:27:48.356Z,28.99
2019-04-03T07:30:22.429Z,29.03
2019-04-03T07:32:57.913Z,29.04
2019-04-03T07:35:31.453Z,28.90
2019-04-03T07:38:04.802Z,29.07
2019-04-03T07:40:39.895Z,28.76
2019-04-03T07:43:13.841Z,28.66
2019-04-03T07:45:47.603Z,28.88
2019-04-03T07:48:21.038Z,28.87
2019-04-03T07:50:55.241Z,28.72
2019-04-03T07:53:29.326Z,28.91
2019-04-03T07:56:03.123Z,28.75
2019-04-03T07:58:36.570Z,28.67
2019-04-03T08:01:11.096Z,28.81
2019-04-03T08:03:45.187Z,28.86
2019-04-03T08:06:18.830Z,28.84
2019-04-03T08:09:05.850Z,28.95
2019-04-03T08:11:28.056Z,28.96
2019-04-03T08:14:01.517Z,28.92
2019-04-03T08:16:35.231Z,29.00
2019-04-03T08:19:08.843Z,29.11
2019-04-03T08:21:43.308Z,29.36
2019-04-03T08:24:16.893Z,29.29
2019-04-03T08:26:51.980Z,29.42
2019-04-03T08:29:25.843Z,29.31
2019-04-03T08:31:59.251Z,29.06
2019-04-03T08:34:32.766Z,29.04
2019-04-03T08:37:06.171Z,29.01
2019-04-03T08:39:39.737Z,28.98
2019-04-03T08:42:13.365Z,29.14
2019-04-03T08:44:46.821Z,29.00
2019-04-03T08:47:20.191Z,28.88
2019-04-03T08:49:56.426Z,28.99
2019-04-03T08:52:28.621Z,28.97
2019-04-03T08:55:01.975Z,28.99
2019-04-03T08:57:37.698Z,29.04
2019-04-03T09:00:11.415Z,28.95
2019-04-03T09:02:44.843Z,28.95
2019-04-03T09:05:19.674Z,29.11
2019-04-03T09:07:56.113Z,29.11
2019-04-03T09:10:32.667Z,28.99
2019-04-03T09:13:17.004Z,29.04
2019-04-03T09:15:41.925Z,29.03
2019-04-03T09:18:15.401Z,28.95
2019-04-03T09:20:49.037Z,28.88
2019-04-03T09:23:24.627Z,28.94
2019-04-03T09:25:57.753Z,28.76
2019-04-03T09:28:31.082Z,28.81
2019-04-03T09:31:04.580Z,28.92
2019-04-03T09:33:37.865Z,28.95
2019-04-03T09:36:11.347Z,28.99
2019-04-03T09:38:44.937Z,28.81
2019-04-03T09:41:19.671Z,28.99
2019-04-03T09:43:54.633Z,29.12
2019-04-03T09:46:30.471Z,29.19
2019-04-03T09:49:03.477Z,29.10
2019-04-03T09:51:37.247Z,28.88
2019-04-03T09:54:10.873Z,29.07
2019-04-03T09:56:57.197Z,29.08
2019-04-03T09:59:19.506Z,28.83
2019-04-03T10:01:52.856Z,29.19
2019-04-03T10:04:27.855Z,29.28
2019-04-03T10:07:02.285Z,28.96
2019-04-03T10:09:38.350Z,29.19
2019-04-03T10:12:11.366Z,29.10
2019-04-03T10:14:46.110Z,29.31
2019-04-03T10:17:19.756Z,29.35
2019-04-03T10:19:53.129Z,29.03
2019-04-03T10:22:26.643Z,29.16
2019-04-03T10:25:00.665Z,29.27
2019-04-03T10:27:35.718Z,29.00
2019-04-03T10:30:13.162Z,29.37
2019-04-03T10:32:46.851Z,29.35
2019-04-03T10:35:20.542Z,29.32
2019-04-03T10:37:54.099Z,29.29
2019-04-03T10:40:27.515Z,29.23
2019-04-03T10:43:02.822Z,29.23
2019-04-03T10:45:36.133Z,29.35
2019-04-03T10:48:09.472Z,29.33
2019-04-03T10:50:42.821Z,29.20
2019-04-03T10:53:17.886Z,29.52
2019-04-03T10:55:51.398Z,29.41
2019-04-03T10:58:25.030Z,29.52
2019-04-03T11:00:59.103Z,29.52
2019-04-03T11:03:33.945Z,29.54
2019-04-03T11:06:08.985Z,29.55
2019-04-03T11:08:42.337Z,29.58
2019-04-03T11:11:15.955Z,29.54
2019-04-03T11:13:49.775Z,29.56
2019-04-03T11:16:23.193Z,29.41
2019-04-03T11:18:59.973Z,29.40
2019-04-03T11:21:32.209Z,29.53
2019-04-03T11:24:06.673Z,29.53
2019-04-03T11:26:41.831Z,29.64
2019-04-03T11:29:15.187Z,29.72
2019-04-03T11:31:48.704Z,29.63
2019-04-03T11:34:22.287Z,29.44
2019-04-03T11:36:55.742Z,29.42
2019-04-03T11:39:29.191Z,29.61
2019-04-03T11:42:03.045Z,29.68
2019-04-03T11:44:36.579Z,29.83
2019-04-03T11:47:12.355Z,30.00
2019-04-03T11:49:45.012Z,30.12
2019-04-03T11:52:18.481Z,30.15
2019-04-03T11:54:53.012Z,30.21
2019-04-03T11:57:27.309Z,30.29
2019-04-03T12:00:01.143Z,30.27
2019-04-03T12:02:34.536Z,30.36
2019-04-03T12:05:08.018Z,30.37
2019-04-03T12:07:41.337Z,30.28
2019-04-03T12:10:14.874Z,30.28
2019-04-03T12:12:48.237Z,30.00
2019-04-03T12:15:22.380Z,30.34
2019-04-03T12:17:56.144Z,30.34
2019-04-03T12:20:29.865Z,30.12
2019-04-03T12:23:05.288Z,30.15
2019-04-03T12:25:40.584Z,30.12
2019-04-03T12:28:17.768Z,30.11
2019-04-03T12:30:49.619Z,30.18
2019-04-03T12:33:23.322Z,30.23
2019-04-03T12:35:56.694Z,30.35
2019-04-03T12:38:31.067Z,30.39
2019-04-03T12:41:05.314Z,30.41
2019-04-03T12:43:38.883Z,30.45
2019-04-03T12:46:12.548Z,30.52
2019-04-03T12:48:46.129Z,30.61
2019-04-03T12:51:20.412Z,30.51
2019-04-03T12:53:54.383Z,30.68
2019-04-03T12:56:30.026Z,30.76
2019-04-03T12:59:03.279Z,30.77
2019-04-03T13:01:36.662Z,31.00
2019-04-03T13:04:10.413Z,30.96
2019-04-03T13:06:43.722Z,30.74
2019-04-03T13:09:17.443Z,30.72
2019-04-03T13:11:52.471Z,30.84
2019-04-03T13:14:27.206Z,30.78
2019-04-03T13:17:01.566Z,30.98
2019-04-03T13:19:35.438Z,30.77
2019-04-03T13:22:10.972Z,30.87
2019-04-03T13:24:44.355Z,30.60
2019-04-03T13:27:18.776Z,30.69
2019-04-03T13:29:52.359Z,30.50
2019-04-03T13:32:25.802Z,30.23
2019-04-03T13:34:59.481Z,30.16
2019-04-03T13:37:33.271Z,29.89
2019-04-03T13:40:07.718Z,29.61
2019-04-03T13:42:41.228Z,29.17
2019-04-03T13:45:14.997Z,29.26
2019-04-03T13:47:49.333Z,29.62
2019-04-03T13:50:23.578Z,29.91
2019-04-03T13:52:58.093Z,30.01
2019-04-03T13:55:34.528Z,30.31
2019-04-03T13:58:07.044Z,30.45
2019-04-03T14:00:40.842Z,30.46
2019-04-03T14:03:17.818Z,30.61
2019-04-03T14:05:50.428Z,30.74
2019-04-03T14:08:24.052Z,30.66
2019-04-03T14:10:58.846Z,30.56
2019-04-03T14:13:32.449Z,30.43
2019-04-03T14:16:18.631Z,30.31
2019-04-03T14:18:42.383Z,30.52
2019-04-03T14:21:15.702Z,30.67
2019-04-03T14:23:49.093Z,30.60
2019-04-03T14:26:22.628Z,30.62
2019-04-03T14:28:55.992Z,30.72
2019-04-03T14:31:36.085Z,31.05
2019-04-03T14:34:05.154Z,31.03
2019-04-03T14:36:38.621Z,30.74
2019-04-03T14:39:12.336Z,30.71
2019-04-03T14:41:45.841Z,31.00
2019-04-03T14:44:19.638Z,31.03
2019-04-03T14:46:53.345Z,30.98
2019-04-03T14:49:26.714Z,30.89
2019-04-03T14:52:00.069Z,30.75
2019-04-03T14:54:33.544Z,30.43
2019-04-03T14:57:17.840Z,30.62
2019-04-03T14:59:43.180Z,30.55
2019-04-03T15:02:16.865Z,30.45
2019-04-03T15:04:50.282Z,30.24
2019-04-03T15:07:24.086Z,30.41
2019-04-03T15:09:59.437Z,30.53
2019-04-03T15:12:32.612Z,30.46
2019-04-03T15:15:06.115Z,30.54
2019-04-03T15:17:39.993Z,30.69
2019-04-03T15:20:13.390Z,30.67
2019-04-03T15:22:47.313Z,30.48
2019-04-03T15:25:20.908Z,30.75
2019-04-03T15:27:54.425Z,30.76
2019-04-03T15:30:29.250Z,30.59
2019-04-03T15:33:02.860Z,30.82
2019-04-03T15:35:36.257Z,30.75
2019-04-03T15:38:13.411Z,30.78
2019-04-03T15:40:46.743Z,30.61
2019-04-03T15:43:20.560Z,30.98
2019-04-03T15:45:56.589Z,30.93
2019-04-03T15:48:30.226Z,30.77
2019-04-03T15:51:06.264Z,30.94
2019-04-03T15:53:39.459Z,30.75
2019-04-03T15:56:15.573Z,31.19
2019-04-03T15:58:51.524Z,31.25
2019-04-03T16:01:26.581Z,31.29
2019-04-03T16:04:00.234Z,31.42
2019-04-03T16:06:35.954Z,31.53
2019-04-03T16:09:09.089Z,31.56
2019-04-03T16:11:42.643Z,31.68
2019-04-03T16:14:16.878Z,31.72
2019-04-03T16:16:53.948Z,31.72
2019-04-03T16:19:27.522Z,31.70
2019-04-03T16:22:02.716Z,31.89
2019-04-03T16:24:36.393Z,32.01
2019-04-03T16:27:09.845Z,32.17
2019-04-03T16:29:43.753Z,32.14
2019-04-03T16:32:26.926Z,32.10
2019-04-03T16:35:06.196Z,32.02
2019-04-03T16:37:42.729Z,32.31
2019-04-03T16:40:18.060Z,32.32
2019-04-03T16:42:52.983Z,32.37
2019-04-03T16:45:27.210Z,32.43
2019-04-03T16:48:00.943Z,32.47
2019-04-03T16:50:34.806Z,32.42
2019-04-03T16:53:08.224Z,33.03
2019-04-03T16:55:41.540Z,33.38
2019-04-03T16:58:14.942Z,33.53
2019-04-03T17:00:48.299Z,33.55
2019-04-03T17:03:22.340Z,33.68
2019-04-03T17:05:55.805Z,33.61
2019-04-03T17:08:29.398Z,33.81
2019-04-03T17:11:03.117Z,33.67
2019-04-03T17:13:36.537Z,33.79
2019-04-03T17:16:16.255Z,33.79
2019-04-03T17:18:49.974Z,34.00
2019-04-03T17:21:23.878Z,34.15
2019-04-03T17:23:57.938Z,34.08
2019-04-03T17:26:32.734Z,34.32
2019-04-03T17:29:06.908Z,34.44
2019-04-03T17:31:58.167Z,34.51
2019-04-03T17:34:32.050Z,34.51
2019-04-03T17:37:05.446Z,34.66
2019-04-03T17:39:38.863Z,34.55
2019-04-03T17:42:12.284Z,34.47
2019-04-03T17:44:53.570Z,34.71
2019-04-03T17:47:30.253Z,34.58
2019-04-03T17:50:09.276Z,34.56
2019-04-03T17:52:46.563Z,34.37
2019-04-03T17:55:20.030Z,34.18
2019-04-03T17:57:53.443Z,34.00
2019-04-03T18:00:26.931Z,33.84
2019-04-03T18:03:00.414Z,33.82
2019-04-03T18:05:34.179Z,33.73
2019-04-03T18:08:09.094Z,33.71
2019-04-03T18:10:43.312Z,33.83
2019-04-03T18:13:17.486Z,33.69
2019-04-03T18:15:51.060Z,33.73
2019-04-03T18:18:24.868Z,33.81
2019-04-03T18:20:58.210Z,33.81
2019-04-03T18:23:31.545Z,33.78
2019-04-03T18:26:04.944Z,33.93
2019-04-03T18:28:38.556Z,33.76
2019-04-03T18:31:13.578Z,33.91
2019-04-03T18:33:48.771Z,33.83
2019-04-03T18:36:27.305Z,33.83
2019-04-03T18:39:00.250Z,33.78
2019-04-03T18:41:37.624Z,33.81
2019-04-03T18:44:21.510Z,33.62
2019-04-03T18:46:50.149Z,33.60
2019-04-03T18:49:23.636Z,33.63
2019-04-03T18:51:57.175Z,33.65
2019-04-03T18:54:30.795Z,33.73
2019-04-03T18:57:04.687Z,33.82
2019-04-03T18:59:38.083Z,33.81
2019-04-03T19:02:11.397Z,33.96
2019-04-03T19:04:44.881Z,33.91
2019-04-03T19:07:20.240Z,34.06
2019-04-03T19:10:06.058Z,33.89
2019-04-03T19:12:35.910Z,33.96
2019-04-03T19:15:06.020Z,33.94
2019-04-03T19:17:40.890Z,34.06
2019-04-03T19:20:14.197Z,33.94
2019-04-03T19:22:47.582Z,33.89
2019-04-03T19:25:21.063Z,33.96
2019-04-03T19:27:54.267Z,33.96
2019-04-03T19:30:28.722Z,33.97
2019-04-03T19:33:02.214Z,33.96
2019-04-03T19:35:35.602Z,33.95
2019-04-03T19:38:08.974Z,34.11
2019-04-03T19:40:42.572Z,34.11
2019-04-03T19:43:15.964Z,34.45
2019-04-03T19:45:51.763Z,34.44
2019-04-03T19:48:26.255Z,34.79
2019-04-03T19:51:02.725Z,34.82
2019-04-03T19:53:35.890Z,35.01
2019-04-03T19:56:09.705Z,35.22
2019-04-03T19:58:43.386Z,35.32
2019-04-03T20:01:16.858Z,35.42
2019-04-03T20:03:50.526Z,35.20
2019-04-03T20:06:23.754Z,34.81
2019-04-03T20:08:57.274Z,34.59
2019-04-03T20:11:34.097Z,34.33
2019-04-03T20:14:11.331Z,34.22
2019-04-03T20:16:43.527Z,34.10
2019-04-03T20:19:16.854Z,34.56
2019-04-03T20:21:50.282Z,34.61
2019-04-03T20:24:25.359Z,34.44
2019-04-03T20:26:58.983Z,34.59
2019-04-03T20:29:32.380Z,34.60
2019-04-03T20:32:07.046Z,34.40
2019-04-03T20:34:40.818Z,34.35
2019-04-03T20:37:14.405Z,34.49
2019-04-03T20:39:47.721Z,34.23
2019-04-03T20:42:21.110Z,34.10
2019-04-03T20:44:54.611Z,34.34
2019-04-03T20:47:27.972Z,34.21
2019-04-03T20:50:01.519Z,34.46
2019-04-03T20:52:35.080Z,34.52
2019-04-03T20:55:08.378Z,34.53
2019-04-03T20:57:54.987Z,34.13
2019-04-03T21:00:19.165Z,34.47
2019-04-03T21:02:52.798Z,34.47
2019-04-03T21:05:26.108Z,34.52
2019-04-03T21:07:59.587Z,34.25
2019-04-03T21:10:32.947Z,34.21
2019-04-03T21:13:06.886Z,34.51
2019-04-03T21:15:41.737Z,34.50
2019-04-03T21:18:15.135Z,34.63
2019-04-03T21:20:48.648Z,34.66
2019-04-03T21:23:22.108Z,34.56
2019-04-03T21:25:55.637Z,34.58
2019-04-03T21:28:29.098Z,34.63
2019-04-03T21:31:02.432Z,34.42
2019-04-03T21:33:35.915Z,34.71
2019-04-03T21:36:09.791Z,34.64
2019-04-03T21:38:43.188Z,34.71
2019-04-03T21:41:16.780Z,34.63
2019-04-03T21:43:50.276Z,34.61
2019-04-03T21:46:23.773Z,34.72
2019-04-03T21:48:57.142Z,34.68
2019-04-03T21:51:30.703Z,34.62
2019-04-03T21:54:04.577Z,34.69
2019-04-03T21:56:37.931Z,34.74
2019-04-03T21:59:11.531Z,34.80
2019-04-03T22:01:45.432Z,34.79
2019-04-03T22:04:20.925Z,34.77
2019-04-03T22:06:57.607Z,34.73
2019-04-03T22:09:30.738Z,34.73
2019-04-03T22:12:06.019Z,34.73
2019-04-03T22:14:40.976Z,34.75
2019-04-03T22:17:15.203Z,34.69
2019-04-03T22:19:48.548Z,34.64
2019-04-03T22:22:22.425Z,34.73
2019-04-03T22:24:56.132Z,34.83
2019-04-03T22:27:29.529Z,34.96
2019-04-03T22:30:03.128Z,34.89
2019-04-03T22:32:39.167Z,34.85
2019-04-03T22:35:12.689Z,34.83
2019-04-03T22:37:46.175Z,34.81
2019-04-03T22:40:20.078Z,34.78
2019-04-03T22:42:53.392Z,34.78
2019-04-03T22:45:26.860Z,34.75
2019-04-03T22:48:00.133Z,34.71
2019-04-03T22:50:35.318Z,34.70
2019-04-03T22:53:10.760Z,34.65
2019-04-03T22:55:46.526Z,34.62
2019-04-03T22:58:21.648Z,34.60
2019-04-03T23:00:55.341Z,34.66
2019-04-03T23:03:28.906Z,34.64
2019-04-03T23:06:02.850Z,34.67
2019-04-03T23:08:36.350Z,34.66
2019-04-03T23:11:09.773Z,34.62
2019-04-03T23:13:43.044Z,34.62
2019-04-03T23:16:16.657Z,34.59
2019-04-03T23:18:50.211Z,34.59
2019-04-03T23:21:24.250Z,34.55
2019-04-03T23:23:58.436Z,34.59
2019-04-03T23:26:32.829Z,34.58
2019-04-03T23:29:07.304Z,34.58
2019-04-03T23:31:40.505Z,34.55
2019-04-03T23:34:13.918Z,34.56
2019-04-03T23:36:47.216Z,34.50
2019-04-03T23:39:20.798Z,34.49
2019-04-03T23:41:54.213Z,34.55
2019-04-03T23:44:27.503Z,34.53
2019-04-03T23:47:00.980Z,34.54
2019-04-03T23:49:34.590Z,34.57
2019-04-03T23:52:07.930Z,34.54
2019-04-03T23:54:41.376Z,34.52
2019-04-03T23:57:14.824Z,34.51
2019-04-03T23:59:48.405Z,34.51
